This is the latest recevied weather packets stored in our database for station/object IW9CSJ-13. If no packets are shown the sender has not sent any weather packets the latest 10 day(s).
| Time | Temp. | Humidity | Pressure | Rain* | Wind** | Luminosity | Snow |
|---|---|---|---|---|---|---|---|
| 1777897519 | 19.44° C | 47% | 1018.1 hPa | 0 mm | - | - | - |
| 1777897220 | 19.44° C | 47% | 1018 hPa | 0 mm | - | - | - |
| 1777896920 | 19.44° C | 48% | 1018 hPa | 0 mm | - | - | - |
| 1777896620 | 19.44° C | 48% | 1018 hPa | 0 mm | - | - | - |
| 1777896320 | 19.44° C | 48% | 1018 hPa | 0 mm | - | - | - |
| 1777895720 | 20° C | 49% | 1018.3 hPa | 0 mm | - | - | - |
| 1777895420 | 20° C | 49% | 1018.3 hPa | 0 mm | - | - | - |
| 1777894821 | 20° C | 48% | 1018.1 hPa | 0 mm | - | - | - |
| 1777894519 | 19.44° C | 49% | 1018.3 hPa | 0 mm | - | - | - |
| 1777894218 | 19.44° C | 50% | 1018.4 hPa | 0 mm | - | - | - |
| 1777893919 | 19.44° C | 50% | 1018.4 hPa | 0 mm | - | - | - |
| 1777892718 | 19.44° C | 50% | 1018.4 hPa | 0 mm | - | - | - |
| 1777892420 | 20° C | 50% | 1018.3 hPa | 0 mm | - | - | - |
| 1777892121 | 20° C | 49% | 1018.3 hPa | 0 mm | - | - | - |
| 1777891818 | 20° C | 50% | 1018.4 hPa | 0 mm | - | - | - |
| 1777891221 | 20° C | 48% | 1018.4 hPa | 0 mm | - | - | - |
| 1777890921 | 20° C | 46% | 1018.4 hPa | 0 mm | - | - | - |
| 1777890621 | 20° C | 45% | 1018.4 hPa | 0 mm | - | - | - |
| 1777890320 | 19.44° C | 47% | 1018.4 hPa | 0 mm | - | - | - |
| 1777889421 | 19.44° C | 51% | 1018.6 hPa | 0 mm | - | - | - |
| 1777889120 | 19.44° C | 52% | 1018.7 hPa | 0 mm | - | - | - |
| 1777888820 | 19.44° C | 53% | 1018.7 hPa | 0 mm | - | - | - |
| 1777888520 | 19.44° C | 54% | 1018.7 hPa | 0 mm | - | - | - |
| 1777888220 | 20° C | 54% | 1018.6 hPa | 0 mm | - | - | - |
| 1777887620 | 20° C | 56% | 1018.7 hPa | 0 mm | - | - | - |
* Rain latest hour (hover to see other rain measurements)
** Current wind speed in m/s (hover to see current wind gust speed)